Time;durP1;ratioP1;P1;durP2;ratioP2;P2;SDS_P1;SDS_P2;PMS_P1;PMS_P2;Temp;Humidity;BMP_temperature;BMP_pressure;BME280_temperature;BME280_humidity;BME280_pressure;Samples;Min_cycle;Max_cycle;Signal;HPM_P1;HPM_P2
2023/03/22 00:02:12;;;;;;;12.83;9.70;;;7.30;99.90;;;;;;4987207;28;20224;-83
2023/03/22 00:04:38;;;;;;;13.40;9.37;;;7.20;99.90;;;;;;4984131;28;20247;-83
2023/03/22 00:07:05;;;;;;;15.23;10.37;;;7.20;99.90;;;;;;4985672;28;20237;-82
2023/03/22 00:09:32;;;;;;;14.83;10.27;;;7.20;99.90;;;;;;4986858;28;20232;-84
2023/03/22 00:12:00;;;;;;;16.90;11.17;;;7.20;99.90;;;;;;4982378;28;20232;-82
2023/03/22 00:14:26;;;;;;;15.10;10.20;;;7.20;99.90;;;;;;4984754;28;20229;-82
2023/03/22 00:16:53;;;;;;;13.97;9.93;;;7.20;99.90;;;;;;4986850;28;20266;-81
2023/03/22 00:19:20;;;;;;;14.17;10.17;;;7.20;99.90;;;;;;4983008;28;20274;-84
2023/03/22 00:21:47;;;;;;;14.80;10.97;;;7.20;99.90;;;;;;4986806;28;20224;-82
2023/03/22 00:24:14;;;;;;;15.03;10.17;;;7.30;99.90;;;;;;4984878;28;20235;-82
2023/03/22 00:26:41;;;;;;;12.93;9.97;;;7.30;99.90;;;;;;4982489;28;20238;-81
2023/03/22 00:29:09;;;;;;;15.60;10.60;;;7.30;99.90;;;;;;4986530;28;20227;-81
2023/03/22 00:31:36;;;;;;;13.03;10.17;;;7.30;99.90;;;;;;4982901;28;20593;-82
2023/03/22 00:34:02;;;;;;;12.97;9.83;;;7.40;99.90;;;;;;4987976;28;20865;-81
2023/03/22 00:36:29;;;;;;;13.20;9.70;;;7.40;99.90;;;;;;4987245;28;20327;-83
2023/03/22 00:38:56;;;;;;;14.30;10.77;;;7.40;99.90;;;;;;4987436;28;20766;-81
2023/03/22 00:41:23;;;;;;;14.63;10.83;;;7.50;99.90;;;;;;4983720;28;20415;-82
2023/03/22 00:43:51;;;;;;;13.17;10.17;;;7.50;99.90;;;;;;4982259;28;20220;-82
2023/03/22 00:46:20;;;;;;;14.53;10.20;;;7.50;99.90;;;;;;4986757;28;20255;-82
2023/03/22 00:48:48;;;;;;;14.03;10.80;;;7.50;99.90;;;;;;4988737;28;20800;-81
2023/03/22 00:51:15;;;;;;;13.50;10.33;;;7.50;99.90;;;;;;4987529;28;20902;-81
2023/03/22 00:53:42;;;;;;;13.47;10.73;;;7.50;99.90;;;;;;4985603;28;20715;-81
2023/03/22 00:56:12;;;;;;;14.20;10.50;;;7.50;99.90;;;;;;4984030;28;20715;-81
2023/03/22 00:58:44;;;;;;;15.10;10.40;;;7.50;99.90;;;;;;4986334;28;20761;-83
2023/03/22 01:01:13;;;;;;;14.00;10.70;;;7.50;99.90;;;;;;4983991;28;20224;-83
2023/03/22 01:03:41;;;;;;;15.43;11.13;;;7.50;99.90;;;;;;4983699;28;20247;-83
2023/03/22 01:06:09;;;;;;;16.80;11.23;;;7.50;99.90;;;;;;4985977;28;20755;-83
2023/03/22 01:08:37;;;;;;;13.43;11.27;;;7.60;99.90;;;;;;4983357;28;20227;-83
2023/03/22 01:11:06;;;;;;;13.73;11.00;;;7.60;99.90;;;;;;4986711;28;20320;-84
2023/03/22 01:13:33;;;;;;;16.93;11.77;;;7.60;99.90;;;;;;4983666;28;20313;-88
2023/03/22 01:16:00;;;;;;;18.80;12.10;;;7.60;99.90;;;;;;4984848;28;20302;-82
2023/03/22 01:18:27;;;;;;;14.87;11.20;;;7.60;99.90;;;;;;5003663;28;20232;-83
2023/03/22 01:20:55;;;;;;;17.23;12.13;;;7.50;99.90;;;;;;4984776;28;20255;-84
2023/03/22 01:23:21;;;;;;;13.50;11.27;;;7.60;99.90;;;;;;4984118;28;20932;-82
2023/03/22 01:25:48;;;;;;;13.77;10.97;;;7.60;99.90;;;;;;4986398;28;20237;-82
2023/03/22 01:28:15;;;;;;;15.70;11.90;;;7.60;99.90;;;;;;5000623;28;20687;-83
2023/03/22 01:30:42;;;;;;;14.00;11.20;;;7.60;99.90;;;;;;5001218;28;20808;-82
2023/03/22 01:33:09;;;;;;;13.93;11.77;;;7.60;99.90;;;;;;4997829;28;20225;-83
2023/03/22 01:35:37;;;;;;;17.47;11.57;;;7.70;99.90;;;;;;4997053;28;20230;-81
2023/03/22 01:38:06;;;;;;;14.97;11.83;;;7.60;99.90;;;;;;5002384;28;20229;-83
2023/03/22 01:40:38;;;;;;;15.40;12.30;;;7.70;99.90;;;;;;4999811;28;20708;-81
2023/03/22 01:43:11;;;;;;;15.43;11.47;;;7.60;99.90;;;;;;4986049;28;20224;-81
2023/03/22 01:45:44;;;;;;;13.40;11.03;;;7.60;99.90;;;;;;4985283;28;20713;-82
2023/03/22 01:48:21;;;;;;;12.60;10.83;;;7.60;99.90;;;;;;4981548;28;20225;-81
2023/03/22 01:50:55;;;;;;;16.70;12.03;;;7.70;99.90;;;;;;4978016;28;20215;-81
2023/03/22 01:53:26;;;;;;;14.03;11.13;;;7.70;99.90;;;;;;4982111;28;20226;-81
2023/03/22 01:55:56;;;;;;;15.03;11.67;;;7.70;99.90;;;;;;4983096;28;20230;-81
2023/03/22 01:58:29;;;;;;;13.77;11.20;;;7.70;99.90;;;;;;4976230;28;20295;-82
2023/03/22 02:01:00;;;;;;;14.63;12.00;;;7.70;99.90;;;;;;5000024;28;20578;-84
2023/03/22 02:03:51;;;;;;;13.23;10.97;;;7.70;99.90;;;;;;4983371;28;20229;-85
2023/03/22 02:06:19;;;;;;;15.33;11.90;;;7.70;99.90;;;;;;4982922;28;20217;-81
2023/03/22 02:08:51;;;;;;;15.97;11.67;;;7.70;99.90;;;;;;4981203;28;20232;-83
2023/03/22 02:11:27;;;;;;;16.27;11.57;;;7.70;99.90;;;;;;4979840;28;20316;-84
2023/03/22 02:14:09;;;;;;;15.40;11.27;;;7.60;99.90;;;;;;5002291;28;20229;-85
2023/03/22 02:16:59;;;;;;;13.40;11.30;;;7.60;99.90;;;;;;4983084;28;20229;-85
2023/03/22 02:20:04;;;;;;;15.90;11.70;;;7.70;99.90;;;;;;4985149;28;20513;-82
2023/03/22 02:23:03;;;;;;;14.37;11.30;;;7.70;99.90;;;;;;4987577;28;20776;-82
2023/03/22 02:26:06;;;;;;;16.73;12.03;;;7.70;99.90;;;;;;4976160;28;20894;-83
2023/03/22 02:28:43;;;;;;;15.53;12.10;;;7.70;99.90;;;;;;4955693;28;20258;-87
2023/03/22 02:31:24;;;;;;;15.03;11.40;;;7.70;99.90;;;;;;4980666;28;20631;-83
2023/03/22 02:34:39;;;;;;;17.77;11.60;;;7.70;99.90;;;;;;4999175;28;20592;-84
2023/03/22 02:37:46;;;;;;;14.17;12.47;;;7.60;99.90;;;;;;4961126;28;20931;-82
2023/03/22 02:40:21;;;;;;;13.13;10.93;;;7.70;99.90;;;;;;4973978;28;20229;-82
2023/03/22 02:42:57;;;;;;;14.93;11.37;;;7.80;99.90;;;;;;5002310;28;21675;-82
2023/03/22 02:45:32;;;;;;;16.27;11.43;;;7.70;99.90;;;;;;4983838;28;20228;-83
2023/03/22 02:48:06;;;;;;;19.67;13.37;;;7.70;99.90;;;;;;4981740;28;20293;-84
2023/03/22 02:50:40;;;;;;;14.60;11.70;;;7.70;99.90;;;;;;4983266;28;20229;-84
2023/03/22 02:53:12;;;;;;;14.70;11.53;;;7.70;99.90;;;;;;4981602;28;20215;-83
2023/03/22 02:55:48;;;;;;;16.77;13.40;;;7.70;99.90;;;;;;4978884;28;20232;-82
2023/03/22 02:58:18;;;;;;;17.70;12.40;;;7.70;99.90;;;;;;4982452;28;20233;-83
2023/03/22 03:00:48;;;;;;;16.03;13.07;;;7.70;99.90;;;;;;4977464;28;20226;-84
2023/03/22 03:03:17;;;;;;;16.93;12.63;;;7.70;99.90;;;;;;4977941;28;20221;-82
2023/03/22 03:05:46;;;;;;;16.03;11.63;;;7.70;99.90;;;;;;4982896;28;20773;-82
2023/03/22 03:08:16;;;;;;;16.33;11.93;;;7.70;99.90;;;;;;4981700;28;20713;-81
2023/03/22 03:10:46;;;;;;;15.03;11.23;;;7.70;99.90;;;;;;4997938;28;20227;-82
2023/03/22 03:13:13;;;;;;;15.33;12.07;;;7.70;99.90;;;;;;4984555;28;20232;-82
2023/03/22 03:15:42;;;;;;;15.93;12.07;;;7.60;99.90;;;;;;4981447;28;20251;-84
2023/03/22 03:18:26;;;;;;;14.50;11.97;;;7.60;99.90;;;;;;4979423;28;20236;-81
2023/03/22 03:21:01;;;;;;;15.67;11.50;;;7.60;99.90;;;;;;4980757;28;20228;-82
2023/03/22 03:23:35;;;;;;;17.20;12.80;;;7.60;99.90;;;;;;4977181;28;20286;-82
2023/03/22 03:26:09;;;;;;;17.13;12.43;;;7.70;99.90;;;;;;4983357;28;20228;-83
2023/03/22 03:28:43;;;;;;;17.57;12.07;;;7.70;99.90;;;;;;4982860;28;20233;-83
2023/03/22 03:31:17;;;;;;;15.13;12.07;;;7.60;99.90;;;;;;4998853;28;20603;-82
2023/03/22 03:33:51;;;;;;;16.50;11.70;;;7.60;99.90;;;;;;4981498;28;20239;-82
2023/03/22 03:36:19;;;;;;;13.70;11.10;;;7.70;99.90;;;;;;4983659;28;20307;-85
2023/03/22 03:38:50;;;;;;;16.37;11.83;;;7.70;99.90;;;;;;4983244;28;20228;-83
2023/03/22 03:41:21;;;;;;;18.00;11.50;;;7.70;99.90;;;;;;4982555;28;20229;-84
2023/03/22 03:43:51;;;;;;;14.77;11.40;;;7.70;99.90;;;;;;4983915;28;20238;-83
2023/03/22 03:46:17;;;;;;;15.40;11.30;;;7.80;99.90;;;;;;4984649;28;20233;-83
2023/03/22 03:48:48;;;;;;;14.17;11.30;;;7.80;99.90;;;;;;4983807;28;20623;-82
2023/03/22 03:51:15;;;;;;;18.20;11.20;;;7.80;99.90;;;;;;4984133;28;20367;-83
2023/03/22 03:53:42;;;;;;;13.27;11.00;;;7.80;99.90;;;;;;4995628;28;20236;-83
2023/03/22 03:56:10;;;;;;;14.97;11.27;;;7.80;99.90;;;;;;4979305;28;20220;-82
2023/03/22 03:58:43;;;;;;;16.40;11.23;;;7.80;99.90;;;;;;4986303;28;20235;-82
2023/03/22 04:01:10;;;;;;;14.33;10.80;;;7.80;99.90;;;;;;4983692;28;20231;-83
2023/03/22 04:03:43;;;;;;;13.27;10.63;;;7.90;99.90;;;;;;4986963;28;20725;-83
2023/03/22 04:06:13;;;;;;;15.43;10.77;;;7.90;99.90;;;;;;4983728;28;20790;-82
2023/03/22 04:08:45;;;;;;;15.53;11.07;;;7.90;99.90;;;;;;4977034;28;20224;-83
2023/03/22 04:11:13;;;;;;;14.70;10.40;;;7.90;99.90;;;;;;4995637;28;20226;-83
2023/03/22 04:13:43;;;;;;;12.67;10.10;;;7.90;99.90;;;;;;4982605;28;20236;-83
2023/03/22 04:16:15;;;;;;;14.10;10.30;;;7.90;99.90;;;;;;4981119;28;20323;-83
2023/03/22 04:18:42;;;;;;;14.43;10.83;;;8.00;99.90;;;;;;4982234;28;20243;-83
2023/03/22 04:21:10;;;;;;;14.07;9.73;;;8.00;99.90;;;;;;4983071;28;20292;-82
2023/03/22 04:23:45;;;;;;;13.80;10.73;;;8.00;99.90;;;;;;4985479;28;20752;-82
2023/03/22 04:26:12;;;;;;;14.10;10.07;;;8.00;99.90;;;;;;4978100;28;20250;-81
2023/03/22 04:28:52;;;;;;;11.97;9.67;;;8.00;99.90;;;;;;4983033;28;20224;-82
2023/03/22 04:31:19;;;;;;;14.37;10.13;;;8.10;99.90;;;;;;4977673;28;20220;-83
2023/03/22 04:34:04;;;;;;;14.70;9.87;;;8.10;99.90;;;;;;4997115;28;20227;-82
2023/03/22 04:36:49;;;;;;;14.80;10.27;;;8.10;99.90;;;;;;5000967;28;20247;-82
2023/03/22 04:39:25;;;;;;;12.87;9.67;;;8.10;99.90;;;;;;4980315;28;20850;-81
2023/03/22 04:42:03;;;;;;;12.50;9.53;;;8.10;99.90;;;;;;4984346;28;20914;-82
2023/03/22 04:44:31;;;;;;;12.07;9.87;;;8.10;99.90;;;;;;4985662;28;20914;-81
2023/03/22 04:46:58;;;;;;;11.70;9.17;;;8.20;99.90;;;;;;4988552;28;20653;-82
2023/03/22 04:49:26;;;;;;;13.20;9.30;;;8.20;99.90;;;;;;4988058;28;20232;-83
2023/03/22 04:51:53;;;;;;;14.27;9.43;;;8.20;99.90;;;;;;4998605;28;20682;-82
2023/03/22 04:54:31;;;;;;;13.17;9.40;;;8.20;99.90;;;;;;4979572;28;20713;-82
2023/03/22 04:56:59;;;;;;;11.90;9.43;;;8.20;99.90;;;;;;4985733;28;20286;-83
2023/03/22 04:59:28;;;;;;;14.63;9.43;;;8.20;99.90;;;;;;5001402;28;20232;-82
2023/03/22 05:01:59;;;;;;;13.50;9.50;;;8.30;99.90;;;;;;4982198;28;20225;-82
2023/03/22 05:04:31;;;;;;;13.17;9.13;;;8.30;99.90;;;;;;4979538;28;20690;-86
2023/03/22 05:07:08;;;;;;;11.80;9.40;;;8.30;99.90;;;;;;5000813;28;20252;-82
2023/03/22 05:09:43;;;;;;;13.73;9.10;;;8.30;99.90;;;;;;4987414;28;20714;-83
2023/03/22 05:12:10;;;;;;;11.27;8.80;;;8.20;99.90;;;;;;4977848;28;20237;-82
2023/03/22 05:14:42;;;;;;;12.97;8.93;;;8.20;99.90;;;;;;4983822;28;20228;-84
2023/03/22 05:17:12;;;;;;;12.87;9.20;;;8.20;99.90;;;;;;4985550;28;20232;-82
2023/03/22 05:19:40;;;;;;;12.37;9.43;;;8.20;99.90;;;;;;4984088;28;20980;-83
2023/03/22 05:22:07;;;;;;;11.77;8.93;;;8.20;99.90;;;;;;4986044;28;20220;-81
2023/03/22 05:24:43;;;;;;;12.53;8.83;;;8.20;99.90;;;;;;5008386;28;20239;-81
2023/03/22 05:27:14;;;;;;;11.97;8.83;;;8.20;99.90;;;;;;4988509;28;20255;-81
2023/03/22 05:29:43;;;;;;;12.77;8.70;;;8.20;99.90;;;;;;4987443;28;20255;-81
2023/03/22 05:32:24;;;;;;;11.50;8.47;;;8.20;99.90;;;;;;4983270;28;20222;-81
2023/03/22 05:34:53;;;;;;;21.20;8.97;;;8.20;99.90;;;;;;4988696;28;20252;-80
2023/03/22 05:37:33;;;;;;;10.97;8.30;;;8.20;99.90;;;;;;5002111;28;20619;-82
2023/03/22 05:40:00;;;;;;;11.30;8.60;;;8.20;99.90;;;;;;4982164;28;20216;-82
2023/03/22 05:42:35;;;;;;;11.83;8.50;;;8.20;99.90;;;;;;4987103;28;20275;-86
2023/03/22 05:45:09;;;;;;;12.10;8.47;;;8.20;99.90;;;;;;4997669;28;20906;-82
2023/03/22 05:47:38;;;;;;;15.33;8.87;;;8.30;99.90;;;;;;5001528;28;20306;-82
2023/03/22 05:50:16;;;;;;;11.07;7.53;;;8.30;99.90;;;;;;4985272;28;20225;-82
2023/03/22 05:52:43;;;;;;;11.10;8.03;;;8.30;99.90;;;;;;4988630;28;20272;-82
2023/03/22 05:55:33;;;;;;;8.50;7.53;;;8.30;99.90;;;;;;4983004;28;20718;-82
2023/03/22 05:58:03;;;;;;;11.47;8.03;;;8.40;99.90;;;;;;5002723;28;21059;-82
2023/03/22 06:00:32;;;;;;;10.53;7.73;;;8.40;99.90;;;;;;5002874;28;20313;-82
2023/03/22 06:03:19;;;;;;;13.13;8.10;;;8.50;99.90;;;;;;4986510;28;20227;-82
2023/03/22 06:05:53;;;;;;;12.20;7.40;;;8.50;99.90;;;;;;5004332;28;20227;-84
2023/03/22 06:08:25;;;;;;;11.17;7.90;;;8.50;99.90;;;;;;4988393;28;20667;-84
2023/03/22 06:10:52;;;;;;;10.80;7.70;;;8.50;99.90;;;;;;4974090;28;20257;-85
2023/03/22 06:13:20;;;;;;;12.30;7.40;;;8.50;99.90;;;;;;5004051;28;20273;-79
2023/03/22 06:15:47;;;;;;;10.27;7.13;;;8.50;99.90;;;;;;4979890;28;20244;-82
2023/03/22 06:18:21;;;;;;;10.87;7.57;;;8.50;99.90;;;;;;4997851;28;20852;-83
2023/03/22 06:20:56;;;;;;;10.13;7.43;;;8.60;99.90;;;;;;4981313;28;20220;-81
2023/03/22 06:23:23;;;;;;;12.23;7.60;;;8.60;99.90;;;;;;4982111;28;20270;-81
2023/03/22 06:25:50;;;;;;;10.00;6.90;;;8.70;99.90;;;;;;4981456;28;20717;-83
2023/03/22 06:28:18;;;;;;;12.23;7.53;;;8.70;99.90;;;;;;4981983;28;20235;-81
2023/03/22 06:30:54;;;;;;;10.73;7.73;;;8.70;99.90;;;;;;4984782;28;20216;-80
2023/03/22 06:33:40;;;;;;;10.90;7.17;;;8.70;99.90;;;;;;4981194;28;20303;-83
2023/03/22 06:36:19;;;;;;;13.67;8.37;;;8.80;99.90;;;;;;4998804;28;20343;-81
2023/03/22 06:39:04;;;;;;;11.90;7.70;;;8.80;99.90;;;;;;4985044;28;20605;-81
2023/03/22 06:41:30;;;;;;;10.70;6.73;;;8.90;99.90;;;;;;4983665;28;20371;-83
2023/03/22 06:43:57;;;;;;;9.47;7.20;;;8.90;99.90;;;;;;4983576;28;20215;-82
2023/03/22 06:47:01;;;;;;;12.97;7.63;;;8.90;99.90;;;;;;4981207;28;20252;-80
2023/03/22 06:49:50;;;;;;;13.83;7.57;;;9.00;99.90;;;;;;4984145;28;20303;-82
2023/03/22 06:52:24;;;;;;;10.23;7.40;;;9.10;99.90;;;;;;4980539;28;20255;-83
2023/03/22 06:54:52;;;;;;;9.97;7.53;;;9.20;99.90;;;;;;4980262;28;20324;-81
2023/03/22 06:57:20;;;;;;;9.80;7.00;;;9.20;99.90;;;;;;4984129;28;20227;-81
2023/03/22 06:59:46;;;;;;;10.20;6.80;;;9.30;99.90;;;;;;4981772;28;20228;-81
2023/03/22 07:02:13;;;;;;;11.40;7.00;;;9.30;99.90;;;;;;4970582;28;20230;-80
2023/03/22 07:04:45;;;;;;;9.83;7.10;;;9.30;99.90;;;;;;4983344;28;20237;-80
2023/03/22 07:07:14;;;;;;;9.00;6.67;;;9.40;99.90;;;;;;4986588;28;20397;-81
2023/03/22 07:09:41;;;;;;;9.77;6.60;;;9.40;99.90;;;;;;4986781;28;20229;-81
2023/03/22 07:12:08;;;;;;;9.93;6.50;;;9.40;99.90;;;;;;4988796;28;20316;-80
2023/03/22 07:14:35;;;;;;;9.57;6.80;;;9.40;99.90;;;;;;4983136;28;20233;-84
2023/03/22 07:17:21;;;;;;;10.93;7.07;;;9.40;99.90;;;;;;4983373;28;20233;-81
2023/03/22 07:19:47;;;;;;;10.63;7.03;;;9.40;99.90;;;;;;4986436;28;20271;-80
2023/03/22 07:22:15;;;;;;;11.20;7.07;;;9.40;99.90;;;;;;4986816;28;20247;-80
2023/03/22 07:24:44;;;;;;;8.53;6.63;;;9.40;99.90;;;;;;4986761;28;20264;-80
2023/03/22 07:27:11;;;;;;;11.00;7.10;;;9.40;99.90;;;;;;4988623;28;20604;-81
2023/03/22 07:29:38;;;;;;;8.70;6.67;;;9.40;99.90;;;;;;4984237;28;20232;-83
2023/03/22 07:32:05;;;;;;;9.90;6.53;;;9.40;99.90;;;;;;4984844;28;20225;-80
2023/03/22 07:34:49;;;;;;;11.53;7.40;;;9.40;99.90;;;;;;4986180;28;20233;-80
2023/03/22 07:37:19;;;;;;;9.73;7.30;;;9.40;99.90;;;;;;4984596;28;20248;-81
2023/03/22 07:39:46;;;;;;;11.50;6.90;;;9.40;99.90;;;;;;4984913;28;20217;-80
2023/03/22 07:42:13;;;;;;;9.73;7.53;;;9.50;99.90;;;;;;4982272;28;20221;-80
2023/03/22 07:44:58;;;;;;;10.80;7.33;;;9.50;99.90;;;;;;4982683;28;20276;-80
2023/03/22 07:47:25;;;;;;;11.30;7.63;;;9.50;99.90;;;;;;4986974;28;20232;-80
2023/03/22 07:50:10;;;;;;;10.93;7.83;;;9.50;99.90;;;;;;4986823;28;20231;-80
2023/03/22 07:52:38;;;;;;;8.67;7.17;;;9.50;99.90;;;;;;4987092;28;20241;-80
2023/03/22 07:55:06;;;;;;;10.57;7.47;;;9.50;99.90;;;;;;4997826;28;20224;-80
2023/03/22 07:57:33;;;;;;;10.00;7.70;;;9.50;99.90;;;;;;4986055;28;20233;-81
2023/03/22 08:00:00;;;;;;;11.40;8.67;;;9.60;99.90;;;;;;4986522;28;20747;-80
2023/03/22 08:02:44;;;;;;;12.63;8.87;;;9.60;99.90;;;;;;4982977;28;20893;-80
2023/03/22 08:05:13;;;;;;;9.43;7.77;;;9.70;99.90;;;;;;4985719;28;20307;-80
2023/03/22 08:07:44;;;;;;;11.33;8.20;;;9.80;99.90;;;;;;4985469;28;20260;-81
2023/03/22 08:10:12;;;;;;;11.03;8.30;;;9.70;99.90;;;;;;4999273;28;20291;-80
2023/03/22 08:12:39;;;;;;;12.07;8.17;;;9.80;99.90;;;;;;5003267;28;20252;-82
2023/03/22 08:15:18;;;;;;;13.03;8.57;;;9.80;99.90;;;;;;4985936;28;20232;-80
2023/03/22 08:17:45;;;;;;;13.27;8.87;;;9.80;99.90;;;;;;4984377;28;20312;-80
2023/03/22 08:20:18;;;;;;;11.57;8.33;;;9.90;99.90;;;;;;5005769;28;20240;-81
2023/03/22 08:22:52;;;;;;;11.40;8.50;;;9.90;99.90;;;;;;4989547;28;20240;-81
2023/03/22 08:25:18;;;;;;;12.87;9.00;;;9.90;99.90;;;;;;4990876;28;20236;-80
2023/03/22 08:27:46;;;;;;;13.77;9.27;;;10.00;99.90;;;;;;4986269;28;20337;-80
2023/03/22 08:30:14;;;;;;;14.30;9.20;;;10.10;99.90;;;;;;5005432;28;20250;-80
2023/03/22 08:32:42;;;;;;;12.93;9.00;;;10.10;99.90;;;;;;4989376;28;20249;-82
2023/03/22 08:35:10;;;;;;;13.20;9.23;;;10.30;99.90;;;;;;4989315;28;20261;-80
2023/03/22 08:37:38;;;;;;;13.70;9.93;;;10.30;99.90;;;;;;4989846;28;20592;-80
2023/03/22 08:40:09;;;;;;;13.30;9.00;;;10.40;99.90;;;;;;4989142;28;20221;-80
2023/03/22 08:42:43;;;;;;;14.47;9.50;;;10.40;99.90;;;;;;4988846;28;20660;-80
2023/03/22 08:45:10;;;;;;;12.77;9.97;;;10.50;99.90;;;;;;4989417;28;20677;-80
2023/03/22 08:47:43;;;;;;;12.07;9.13;;;10.60;99.90;;;;;;4987989;28;20231;-80
2023/03/22 08:50:11;;;;;;;13.93;9.20;;;10.70;99.90;;;;;;5005621;28;20226;-80
2023/03/22 08:52:46;;;;;;;11.53;9.33;;;10.80;99.90;;;;;;4987538;28;20232;-81
2023/03/22 08:55:21;;;;;;;12.77;9.10;;;10.90;99.90;;;;;;5005665;28;20600;-80
2023/03/22 08:58:15;;;;;;;12.10;9.53;;;11.20;99.90;;;;;;4983973;28;20601;-81
2023/03/22 09:01:19;;;;;;;10.97;8.17;;;11.60;99.90;;;;;;4987719;28;20235;-80
2023/03/22 09:04:03;;;;;;;13.47;8.37;;;12.20;99.90;;;;;;4988297;28;20246;-80
2023/03/22 09:06:30;;;;;;;10.17;7.80;;;12.70;99.90;;;;;;5003848;28;20233;-81
2023/03/22 09:08:57;;;;;;;11.43;8.00;;;13.20;99.90;;;;;;4990168;28;20728;-80
2023/03/22 09:11:25;;;;;;;11.00;8.13;;;13.50;99.90;;;;;;4980433;28;20239;-80
2023/03/22 09:13:52;;;;;;;10.30;7.20;;;13.80;99.90;;;;;;4989611;28;20886;-81
2023/03/22 09:16:19;;;;;;;9.27;7.10;;;14.10;99.90;;;;;;4990125;28;20241;-80
2023/03/22 09:18:47;;;;;;;9.83;7.57;;;14.40;99.90;;;;;;4988007;28;20315;-77
2023/03/22 09:21:20;;;;;;;9.53;6.53;;;14.60;99.90;;;;;;5003719;28;20224;-78
2023/03/22 09:23:53;;;;;;;8.23;6.70;;;14.80;99.90;;;;;;4988120;28;20237;-77
2023/03/22 09:26:26;;;;;;;7.87;6.57;;;15.10;99.90;;;;;;5001408;28;20302;-77
2023/03/22 09:28:54;;;;;;;10.00;6.40;;;15.20;99.90;;;;;;4987492;28;20232;-78
2023/03/22 09:31:21;;;;;;;8.17;6.30;;;15.20;99.90;;;;;;4986889;28;20231;-77
2023/03/22 09:33:57;;;;;;;8.47;6.00;;;15.40;99.90;;;;;;4987040;28;20228;-77
2023/03/22 09:36:24;;;;;;;10.80;6.33;;;15.50;99.90;;;;;;4987484;28;20236;-77
2023/03/22 09:38:51;;;;;;;9.17;5.43;;;15.70;99.90;;;;;;4987654;28;20766;-77
2023/03/22 09:41:23;;;;;;;9.97;5.03;;;15.80;99.90;;;;;;4984928;28;20229;-77
2023/03/22 09:43:56;;;;;;;5.57;4.43;;;15.90;99.90;;;;;;4985429;28;20233;-78
2023/03/22 09:46:29;;;;;;;7.53;5.20;;;15.90;99.90;;;;;;4979815;28;20233;-77
2023/03/22 09:48:58;;;;;;;6.63;4.53;;;15.80;99.90;;;;;;4987445;28;20884;-77
2023/03/22 09:51:33;;;;;;;8.33;5.23;;;15.70;99.90;;;;;;4984409;28;20229;-77
2023/03/22 09:54:00;;;;;;;7.03;4.80;;;15.60;99.90;;;;;;4988013;28;20293;-77
2023/03/22 09:56:29;;;;;;;8.17;4.43;;;15.60;99.90;;;;;;4984641;28;20592;-77
2023/03/22 09:59:06;;;;;;;8.17;4.57;;;15.40;99.90;;;;;;4987776;28;20238;-77
2023/03/22 10:01:41;;;;;;;9.20;4.53;;;15.40;99.90;;;;;;4985311;28;20571;-77
2023/03/22 10:04:38;;;;;;;6.67;3.90;;;15.30;99.90;;;;;;4986973;28;20221;-77
2023/03/22 10:07:12;;;;;;;6.63;3.80;;;15.10;99.90;;;;;;4987071;28;20235;-78
2023/03/22 10:09:47;;;;;;;6.97;3.47;;;15.00;99.90;;;;;;4985523;28;20256;-77
2023/03/22 10:12:18;;;;;;;7.33;3.77;;;14.80;99.90;;;;;;4981999;28;20259;-77
2023/03/22 10:14:51;;;;;;;6.47;3.30;;;14.80;99.90;;;;;;4987995;28;20240;-77
2023/03/22 10:17:21;;;;;;;7.37;4.40;;;14.60;99.90;;;;;;4986674;28;20695;-77
2023/03/22 10:19:52;;;;;;;7.63;3.13;;;14.60;99.90;;;;;;4988483;28;20237;-77
2023/03/22 10:22:24;;;;;;;7.57;3.50;;;14.60;99.90;;;;;;4982184;28;20221;-77
2023/03/22 10:24:53;;;;;;;6.17;2.93;;;14.50;99.90;;;;;;4980552;28;20233;-77
2023/03/22 10:27:21;;;;;;;6.60;3.27;;;14.50;99.90;;;;;;4982713;28;20693;-77
2023/03/22 10:29:53;;;;;;;5.73;2.87;;;14.50;99.90;;;;;;4984839;28;20223;-78
2023/03/22 10:32:26;;;;;;;6.43;3.50;;;14.50;99.90;;;;;;4974634;28;20669;-77
2023/03/22 10:34:53;;;;;;;6.27;2.73;;;14.60;99.90;;;;;;4987893;28;20229;-78
2023/03/22 10:37:23;;;;;;;9.77;3.17;;;14.70;99.90;;;;;;4986164;28;20728;-77
2023/03/22 10:39:53;;;;;;;7.80;3.00;;;14.70;99.90;;;;;;4987863;28;20230;-77
2023/03/22 10:42:23;;;;;;;5.83;2.80;;;14.70;99.90;;;;;;5000455;28;20233;-77
2023/03/22 10:44:55;;;;;;;7.77;3.30;;;14.70;99.90;;;;;;4979069;28;20319;-78
2023/03/22 10:47:29;;;;;;;6.43;2.90;;;14.70;99.90;;;;;;4986105;28;20236;-77
2023/03/22 10:49:58;;;;;;;5.50;3.07;;;14.60;99.90;;;;;;4987422;28;20233;-77
2023/03/22 10:52:36;;;;;;;5.33;2.97;;;14.50;99.90;;;;;;4997040;28;20240;-77
2023/03/22 10:55:04;;;;;;;6.73;2.83;;;14.50;99.90;;;;;;4987815;28;20299;-78
2023/03/22 10:57:31;;;;;;;4.30;2.50;;;14.50;99.90;;;;;;4985426;28;20260;-77
2023/03/22 10:59:58;;;;;;;7.87;2.80;;;14.50;99.90;;;;;;4987899;28;20233;-77
2023/03/22 11:02:28;;;;;;;6.50;2.50;;;14.50;99.90;;;;;;4980876;28;20222;-77
2023/03/22 11:04:56;;;;;;;6.83;2.30;;;14.50;99.90;;;;;;4988045;28;20317;-77
2023/03/22 11:07:35;;;;;;;6.90;2.50;;;14.50;99.90;;;;;;4980659;28;20238;-77
2023/03/22 11:10:27;;;;;;;7.10;2.10;;;14.60;99.90;;;;;;4987520;28;20688;-77
2023/03/22 11:13:10;;;;;;;5.57;1.90;;;14.70;99.90;;;;;;4974669;28;20295;-77
2023/03/22 11:15:40;;;;;;;5.47;2.20;;;14.60;99.90;;;;;;4982450;28;20244;-77
2023/03/22 11:18:11;;;;;;;5.00;2.30;;;14.70;99.90;;;;;;4986320;28;20235;-77
2023/03/22 11:20:40;;;;;;;5.80;2.40;;;14.70;99.90;;;;;;4988001;28;20231;-77
2023/03/22 11:23:11;;;;;;;5.13;2.03;;;14.70;99.90;;;;;;4986181;28;20228;-77
2023/03/22 11:25:45;;;;;;;3.90;2.00;;;14.70;99.90;;;;;;4985156;28;20312;-77
2023/03/22 11:28:19;;;;;;;7.47;2.03;;;14.70;99.90;;;;;;4985940;28;20239;-77
2023/03/22 11:31:02;;;;;;;6.27;2.30;;;14.80;99.90;;;;;;4987496;28;20226;-76
2023/03/22 11:33:29;;;;;;;6.90;2.40;;;14.90;99.90;;;;;;4981637;28;20227;-77
2023/03/22 11:35:57;;;;;;;5.17;2.63;;;14.90;99.90;;;;;;4986353;28;20235;-77
2023/03/22 11:38:30;;;;;;;6.37;2.43;;;14.90;99.70;;;;;;4981872;28;20624;-77
2023/03/22 11:41:01;;;;;;;5.17;2.30;;;14.90;99.60;;;;;;4985977;28;20610;-77
2023/03/22 11:43:34;;;;;;;6.57;2.10;;;14.80;99.90;;;;;;4983054;28;20221;-77
2023/03/22 11:46:02;;;;;;;7.23;2.43;;;14.80;99.90;;;;;;4982762;28;20234;-77
2023/03/22 11:48:31;;;;;;;6.80;2.30;;;14.80;99.90;;;;;;4986716;28;20740;-77
2023/03/22 11:51:06;;;;;;;5.17;2.33;;;14.70;99.50;;;;;;4984890;28;20729;-77
2023/03/22 11:53:34;;;;;;;7.67;2.30;;;14.70;99.20;;;;;;4988175;28;20233;-77
2023/03/22 11:56:06;;;;;;;5.93;2.00;;;14.60;99.80;;;;;;4990928;28;20230;-78
2023/03/22 11:58:48;;;;;;;5.43;2.43;;;14.60;99.90;;;;;;4985030;28;20694;-78
2023/03/22 12:01:22;;;;;;;5.43;2.20;;;14.60;99.70;;;;;;5003232;28;20712;-77
2023/03/22 12:03:54;;;;;;;4.17;1.77;;;14.50;99.80;;;;;;4988238;28;20247;-77
2023/03/22 12:06:24;;;;;;;4.60;1.87;;;14.50;99.80;;;;;;4989239;28;20228;-77
2023/03/22 12:08:54;;;;;;;5.83;2.70;;;14.50;99.90;;;;;;4991448;28;20235;-77
2023/03/22 12:11:37;;;;;;;5.43;2.73;;;14.50;99.50;;;;;;4988366;28;20284;-78
2023/03/22 12:14:08;;;;;;;4.20;2.43;;;14.60;99.30;;;;;;4988144;28;20231;-78
2023/03/22 12:16:46;;;;;;;7.00;2.50;;;14.60;99.20;;;;;;4990669;28;20257;-77
2023/03/22 12:19:22;;;;;;;4.53;2.50;;;14.60;98.90;;;;;;4988845;28;20229;-77
2023/03/22 12:21:51;;;;;;;6.70;2.63;;;14.60;99.10;;;;;;4980078;28;20233;-77
2023/03/22 12:24:26;;;;;;;6.00;2.70;;;14.70;99.60;;;;;;4984328;28;20309;-77
2023/03/22 12:26:55;;;;;;;4.80;2.80;;;14.70;99.30;;;;;;4980276;28;20263;-77
2023/03/22 12:29:22;;;;;;;5.47;2.67;;;14.70;99.40;;;;;;4986229;28;20224;-77
2023/03/22 12:31:58;;;;;;;4.93;2.97;;;14.70;99.20;;;;;;4982876;28;20231;-78
2023/03/22 12:34:34;;;;;;;7.23;3.10;;;14.70;98.80;;;;;;4989199;28;20232;-78
2023/03/22 12:37:03;;;;;;;4.70;2.87;;;14.70;99.40;;;;;;4989979;28;20247;-77
2023/03/22 12:39:35;;;;;;;7.57;2.80;;;14.60;99.50;;;;;;4989069;28;20777;-77
2023/03/22 12:42:10;;;;;;;6.93;3.47;;;14.60;99.60;;;;;;4989818;28;20265;-77
2023/03/22 12:44:40;;;;;;;4.30;2.93;;;14.60;99.90;;;;;;4996621;28;20582;-77
2023/03/22 12:47:17;;;;;;;4.87;3.00;;;14.60;99.80;;;;;;4988157;28;20248;-77
2023/03/22 12:49:52;;;;;;;6.07;3.00;;;14.50;98.80;;;;;;4984813;28;20239;-77
2023/03/22 12:52:23;;;;;;;4.47;3.00;;;14.50;98.80;;;;;;4990054;28;20218;-77
2023/03/22 12:54:52;;;;;;;6.23;3.67;;;14.50;99.00;;;;;;4990071;28;20226;-77
2023/03/22 12:57:19;;;;;;;4.67;3.17;;;14.40;98.90;;;;;;4989345;28;20580;-77
2023/03/22 12:59:50;;;;;;;5.13;3.20;;;14.40;99.00;;;;;;4990430;28;20593;-78
2023/03/22 13:02:23;;;;;;;6.47;2.90;;;14.40;98.80;;;;;;4983429;28;20232;-77
2023/03/22 13:04:52;;;;;;;7.37;4.17;;;14.30;99.30;;;;;;4986407;28;20231;-77
2023/03/22 13:07:36;;;;;;;7.13;4.00;;;14.30;99.90;;;;;;4988415;28;20759;-77
2023/03/22 13:10:39;;;;;;;6.90;4.40;;;14.20;99.90;;;;;;4984208;28;20288;-77